Herd, Kentucky
Current Conditions -  °F | °C
As of 4:53 AM on Thursday 23 Oct 2014 (Local Time) from KLOZ Reporting Station
Overcast Overcast  
Wind Chill: 46°   Ceiling: 2500
Heat Index: 48°   Visibility: 10mi
Dew Point: 42°   Wind: 5mph
Humidity: 80%   Direction: 30°NNE
Pressure: 30.22"   Gusts: NA
Location:  37.346°N, 83.8503°W
Report Text: KLOZ 230853Z AUTO 03004KT 10SM OVC025 09/06 A3022 RMK AO2 SLP233 T00890056 55003
Loading
Personal Weather Stations






























Interactive Weather Map
Tropical Storm Tracking
New forecast layout! Learn more

10-Day Weather Forecast

Advertisements
Track Severe Weather on mobile